Time;durP1;ratioP1;P1;durP2;ratioP2;P2;SDS_P1;SDS_P2;PMS_P1;PMS_P2;Temp;Humidity;BMP_temperature;BMP_pressure;BME280_temperature;BME280_humidity;BME280_pressure;Samples;Min_cycle;Max_cycle;Signal;HPM_P1;HPM_P2
2022/04/07 00:00:57;;;;;;;14.77;4.10;;;;;;;;;;5083496;28;20773;-80
2022/04/07 00:03:23;;;;;;;14.23;4.23;;;;;;;;;;5085597;28;20580;-83
2022/04/07 00:05:49;;;;;;;15.45;4.20;;;;;;;;;;5071642;28;20431;-79
2022/04/07 00:08:15;;;;;;;15.70;3.83;;;;;;;;;;5084653;28;20890;-80
2022/04/07 00:10:41;;;;;;;13.60;3.65;;;;;;;;;;5115204;27;21026;-85
2022/04/07 00:13:07;;;;;;;12.98;3.50;;;;;;;;;;5071712;28;20425;-79
2022/04/07 00:15:33;;;;;;;13.82;3.00;;;;;;;;;;5080121;28;20467;-79
2022/04/07 00:17:59;;;;;;;11.55;2.72;;;;;;;;;;5087693;28;20954;-79
2022/04/07 00:20:26;;;;;;;11.33;2.80;;;;;;;;;;5082075;28;20424;-81
2022/04/07 00:22:53;;;;;;;10.45;2.53;;;;;;;;;;5087103;28;20451;-79
2022/04/07 00:25:19;;;;;;;10.07;2.35;;;;;;;;;;5086949;28;20418;-79
2022/04/07 00:27:45;;;;;;;9.52;2.30;;;;;;;;;;5084543;28;20430;-78
2022/04/07 00:30:13;;;;;;;10.73;2.42;;;;;;;;;;5113686;27;20896;-85
2022/04/07 00:32:43;;;;;;;11.30;2.47;;;;;;;;;;5084822;28;20430;-80
2022/04/07 00:35:09;;;;;;;12.00;2.70;;;;;;;;;;5088008;28;20489;-79
2022/04/07 00:37:36;;;;;;;16.25;3.20;;;;;;;;;;5083406;28;20425;-79
2022/04/07 00:40:02;;;;;;;16.90;3.03;;;;;;;;;;5071107;28;20424;-82
2022/04/07 00:42:28;;;;;;;17.10;3.53;;;;;;;;;;5064733;28;20433;-79
2022/04/07 00:44:54;;;;;;;20.77;3.92;;;;;;;;;;5082288;28;20424;-79
2022/04/07 00:47:22;;;;;;;21.20;4.03;;;;;;;;;;5079287;28;20434;-79
2022/04/07 00:49:48;;;;;;;17.05;4.05;;;;;;;;;;5081386;28;20435;-79
2022/04/07 00:52:14;;;;;;;17.15;3.42;;;;;;;;;;5082863;28;20410;-82
2022/04/07 00:54:40;;;;;;;20.10;3.88;;;;;;;;;;5069059;28;20912;-81
2022/04/07 00:57:07;;;;;;;18.80;3.92;;;;;;;;;;5053799;28;20415;-82
2022/04/07 00:59:34;;;;;;;18.75;3.70;;;;;;;;;;5071260;28;20776;-80
2022/04/07 01:02:01;;;;;;;21.65;4.47;;;;;;;;;;5068265;28;20436;-80
2022/04/07 01:04:27;;;;;;;21.27;3.83;;;;;;;;;;5088269;28;20427;-86
2022/04/07 01:06:53;;;;;;;19.55;3.78;;;;;;;;;;5086887;28;20472;-79
2022/04/07 01:09:20;;;;;;;19.85;3.78;;;;;;;;;;5087184;28;20448;-79
2022/04/07 01:11:46;;;;;;;23.27;4.13;;;;;;;;;;5082953;28;20418;-80
2022/04/07 01:14:12;;;;;;;23.00;4.43;;;;;;;;;;5086172;28;20483;-81
2022/04/07 01:16:39;;;;;;;22.15;4.57;;;;;;;;;;5074764;28;20427;-79
2022/04/07 01:19:05;;;;;;;21.63;4.40;;;;;;;;;;5104469;28;20587;-81
2022/04/07 01:21:32;;;;;;;23.30;4.60;;;;;;;;;;5084387;28;20446;-80
2022/04/07 01:23:58;;;;;;;27.77;4.60;;;;;;;;;;5099080;28;20422;-80
2022/04/07 01:26:25;;;;;;;21.20;4.38;;;;;;;;;;5121319;28;20442;-79
2022/04/07 01:28:51;;;;;;;15.73;3.53;;;;;;;;;;5060995;28;20423;-84
2022/04/07 01:31:17;;;;;;;17.80;3.80;;;;;;;;;;5070996;28;20430;-83
2022/04/07 01:33:44;;;;;;;21.02;4.00;;;;;;;;;;5081400;28;20428;-79
2022/04/07 01:36:11;;;;;;;20.00;4.05;;;;;;;;;;5087790;28;20455;-81
2022/04/07 01:38:37;;;;;;;27.90;5.20;;;;;;;;;;5092523;28;20448;-80
2022/04/07 01:41:03;;;;;;;23.93;5.47;;;;;;;;;;5076989;28;20445;-80
2022/04/07 01:43:30;;;;;;;30.33;5.32;;;;;;;;;;5100599;28;20425;-87
2022/04/07 01:45:56;;;;;;;27.20;6.65;;;;;;;;;;5065779;28;20450;-80
2022/04/07 01:48:23;;;;;;;27.33;5.95;;;;;;;;;;5116466;28;20474;-80
2022/04/07 01:50:51;;;;;;;28.95;6.45;;;;;;;;;;5064911;28;21090;-80
2022/04/07 01:53:17;;;;;;;25.17;5.78;;;;;;;;;;5083829;28;20475;-80
2022/04/07 01:55:43;;;;;;;25.08;5.45;;;;;;;;;;5112951;27;20929;-80
2022/04/07 01:58:10;;;;;;;25.20;5.35;;;;;;;;;;5069094;28;20424;-81
2022/04/07 02:00:36;;;;;;;27.02;5.40;;;;;;;;;;5079108;28;20432;-81
2022/04/07 02:03:05;;;;;;;27.42;5.93;;;;;;;;;;5087876;28;20444;-81
2022/04/07 02:05:32;;;;;;;31.00;6.00;;;;;;;;;;5114787;27;20455;-87
2022/04/07 02:07:58;;;;;;;27.30;5.63;;;;;;;;;;5105777;27;20436;-80
2022/04/07 02:10:26;;;;;;;25.75;5.22;;;;;;;;;;5071214;28;20514;-83
2022/04/07 02:12:52;;;;;;;30.37;5.57;;;;;;;;;;5088915;28;21195;-79
2022/04/07 02:15:18;;;;;;;24.85;5.07;;;;;;;;;;5080677;28;20769;-79
2022/04/07 02:17:44;;;;;;;31.97;5.73;;;;;;;;;;5094830;28;21008;-79
2022/04/07 02:20:11;;;;;;;27.42;5.07;;;;;;;;;;5082827;28;20424;-79
2022/04/07 02:22:37;;;;;;;24.70;4.45;;;;;;;;;;5080865;28;20417;-79
2022/04/07 02:25:03;;;;;;;25.53;5.03;;;;;;;;;;5088714;28;20425;-79
2022/04/07 02:27:36;;;;;;;29.35;5.72;;;;;;;;;;5068417;28;20758;-79
2022/04/07 02:30:07;;;;;;;33.28;5.60;;;;;;;;;;5084640;28;20492;-79
2022/04/07 02:32:33;;;;;;;30.88;5.78;;;;;;;;;;5103905;28;20517;-85
2022/04/07 02:34:59;;;;;;;28.30;5.57;;;;;;;;;;5079253;28;20423;-79
2022/04/07 02:37:25;;;;;;;30.33;5.10;;;;;;;;;;5103959;28;20428;-80
2022/04/07 02:39:52;;;;;;;29.60;5.53;;;;;;;;;;5070918;28;20425;-79
2022/04/07 02:42:19;;;;;;;26.13;5.32;;;;;;;;;;5083539;28;20481;-81
2022/04/07 02:44:45;;;;;;;29.10;5.70;;;;;;;;;;5081930;28;21063;-79
2022/04/07 02:47:11;;;;;;;27.67;5.68;;;;;;;;;;5105502;27;21168;-81
2022/04/07 02:49:40;;;;;;;26.02;5.05;;;;;;;;;;5082401;28;20422;-80
2022/04/07 02:52:10;;;;;;;26.77;5.25;;;;;;;;;;5091517;28;20466;-81
2022/04/07 02:54:37;;;;;;;26.48;5.40;;;;;;;;;;5088125;28;20508;-86
2022/04/07 02:57:03;;;;;;;26.35;5.63;;;;;;;;;;5081750;28;20551;-81
2022/04/07 02:59:29;;;;;;;26.48;4.78;;;;;;;;;;5071778;28;20428;-81
2022/04/07 03:01:56;;;;;;;27.40;5.80;;;;;;;;;;5082673;28;20418;-80
2022/04/07 03:04:25;;;;;;;24.23;5.72;;;;;;;;;;5096900;28;22170;-83
2022/04/07 03:06:52;;;;;;;28.17;5.30;;;;;;;;;;5087267;28;20492;-80
2022/04/07 03:09:19;;;;;;;24.67;5.43;;;;;;;;;;5102174;28;20544;-80
2022/04/07 03:11:46;;;;;;;25.25;5.82;;;;;;;;;;5073961;28;20421;-79
2022/04/07 03:14:12;;;;;;;22.90;5.30;;;;;;;;;;5075109;28;20792;-87
2022/04/07 03:16:39;;;;;;;24.83;5.73;;;;;;;;;;5089311;28;20422;-80
2022/04/07 03:19:05;;;;;;;23.33;5.40;;;;;;;;;;5086091;28;20437;-79
2022/04/07 03:21:31;;;;;;;22.65;5.30;;;;;;;;;;5090674;28;20428;-79
2022/04/07 03:23:57;;;;;;;21.60;5.25;;;;;;;;;;5085674;28;20914;-80
2022/04/07 03:26:23;;;;;;;25.92;6.43;;;;;;;;;;5071336;28;20429;-79
2022/04/07 03:28:49;;;;;;;22.77;5.50;;;;;;;;;;5084580;28;20504;-79
2022/04/07 03:31:15;;;;;;;26.48;6.40;;;;;;;;;;5082018;28;20482;-80
2022/04/07 03:33:41;;;;;;;23.23;6.47;;;;;;;;;;5086863;28;20418;-80
2022/04/07 03:36:08;;;;;;;24.92;5.88;;;;;;;;;;5084687;28;20997;-80
2022/04/07 03:38:35;;;;;;;22.83;5.45;;;;;;;;;;5101409;28;20430;-80
2022/04/07 03:41:01;;;;;;;22.25;5.60;;;;;;;;;;5078954;28;20707;-79
2022/04/07 03:43:27;;;;;;;20.38;5.30;;;;;;;;;;5081925;28;20815;-80
2022/04/07 03:45:54;;;;;;;23.42;5.30;;;;;;;;;;5076096;28;20431;-80
2022/04/07 03:48:20;;;;;;;27.57;5.80;;;;;;;;;;5088042;28;20527;-80
2022/04/07 03:50:46;;;;;;;23.67;5.18;;;;;;;;;;5059138;28;20902;-79
2022/04/07 03:53:12;;;;;;;23.63;4.97;;;;;;;;;;5069213;28;20977;-84
2022/04/07 03:55:39;;;;;;;26.05;4.97;;;;;;;;;;5101290;28;20832;-87
2022/04/07 03:58:05;;;;;;;25.45;5.00;;;;;;;;;;5102133;28;20516;-82
2022/04/07 04:00:31;;;;;;;26.37;5.40;;;;;;;;;;5068392;28;20489;-81
2022/04/07 04:02:57;;;;;;;24.77;4.97;;;;;;;;;;5083509;28;20479;-80
2022/04/07 04:05:23;;;;;;;31.20;5.82;;;;;;;;;;5078334;28;20460;-81
2022/04/07 04:07:49;;;;;;;22.90;5.43;;;;;;;;;;5083750;28;20422;-81
2022/04/07 04:10:16;;;;;;;30.10;6.00;;;;;;;;;;5091790;28;20448;-80
2022/04/07 04:12:42;;;;;;;25.30;5.32;;;;;;;;;;5059979;28;20464;-86
2022/04/07 04:15:08;;;;;;;30.38;6.72;;;;;;;;;;5079856;28;20900;-80
2022/04/07 04:17:34;;;;;;;38.05;6.43;;;;;;;;;;5055957;28;20420;-81
2022/04/07 04:20:01;;;;;;;30.33;5.80;;;;;;;;;;5063686;28;21172;-80
2022/04/07 04:22:27;;;;;;;31.35;6.80;;;;;;;;;;5055995;28;20540;-80
2022/04/07 04:24:53;;;;;;;34.50;7.05;;;;;;;;;;5087547;28;20426;-81
2022/04/07 04:27:19;;;;;;;33.50;6.35;;;;;;;;;;5109745;27;20439;-80
2022/04/07 04:29:45;;;;;;;34.88;6.55;;;;;;;;;;5081457;28;20862;-80
2022/04/07 04:32:12;;;;;;;36.45;6.60;;;;;;;;;;5065912;28;20447;-81
2022/04/07 04:34:38;;;;;;;37.42;6.85;;;;;;;;;;5083164;28;20425;-80
2022/04/07 04:37:04;;;;;;;41.25;7.65;;;;;;;;;;5067822;28;20430;-80
2022/04/07 04:39:30;;;;;;;41.95;7.80;;;;;;;;;;5066497;28;20746;-80
2022/04/07 04:41:56;;;;;;;42.17;7.63;;;;;;;;;;5079362;28;20780;-86
2022/04/07 04:44:22;;;;;;;36.20;7.10;;;;;;;;;;5078467;28;20988;-81
2022/04/07 04:46:48;;;;;;;37.97;7.28;;;;;;;;;;5074885;28;20794;-80
2022/04/07 04:49:14;;;;;;;43.40;8.50;;;;;;;;;;5083454;28;20461;-76
2022/04/07 04:51:40;;;;;;;43.20;7.88;;;;;;;;;;5090232;28;20419;-77
2022/04/07 04:54:07;;;;;;;43.22;7.80;;;;;;;;;;5097409;28;20424;-78
2022/04/07 04:56:33;;;;;;;38.47;7.95;;;;;;;;;;5084668;28;20414;-77
2022/04/07 04:58:59;;;;;;;42.97;8.15;;;;;;;;;;5062794;28;20445;-79
2022/04/07 05:01:25;;;;;;;39.30;7.83;;;;;;;;;;5080247;28;20435;-78
2022/04/07 05:03:51;;;;;;;46.22;8.85;;;;;;;;;;5079851;28;20437;-83
2022/04/07 05:06:17;;;;;;;45.97;8.95;;;;;;;;;;5068680;28;20927;-78
2022/04/07 05:08:43;;;;;;;47.42;8.93;;;;;;;;;;5079280;28;20936;-82
2022/04/07 05:11:10;;;;;;;45.08;8.73;;;;;;;;;;5099630;28;20418;-77
2022/04/07 05:13:36;;;;;;;26.52;5.43;;;;;;;;;;5081529;28;20934;-76
2022/04/07 05:16:02;;;;;;;20.83;4.15;;;;;;;;;;5079624;28;20592;-78
2022/04/07 05:18:28;;;;;;;18.45;4.18;;;;;;;;;;5068602;28;20769;-76
2022/04/07 05:20:54;;;;;;;15.67;3.17;;;;;;;;;;5082205;28;20421;-77
2022/04/07 05:23:20;;;;;;;14.90;2.97;;;;;;;;;;5114709;27;20418;-76
2022/04/07 05:25:46;;;;;;;14.20;2.67;;;;;;;;;;5078403;28;20428;-84
2022/04/07 05:28:12;;;;;;;17.35;2.85;;;;;;;;;;5083330;28;20944;-76
2022/04/07 05:30:38;;;;;;;15.98;2.92;;;;;;;;;;5086784;28;20539;-76
2022/04/07 05:33:04;;;;;;;17.20;2.90;;;;;;;;;;5076191;28;20431;-80
2022/04/07 05:35:30;;;;;;;17.30;3.10;;;;;;;;;;5066734;28;20428;-80
2022/04/07 05:37:57;;;;;;;19.20;3.10;;;;;;;;;;5084160;28;20757;-76
2022/04/07 05:40:24;;;;;;;15.18;3.30;;;;;;;;;;5083920;28;20859;-76
2022/04/07 05:42:50;;;;;;;16.13;3.33;;;;;;;;;;5070568;28;20451;-74
2022/04/07 05:45:16;;;;;;;16.83;3.00;;;;;;;;;;5073328;28;20442;-76
2022/04/07 05:47:42;;;;;;;18.60;3.38;;;;;;;;;;5055848;28;20431;-78
2022/04/07 05:50:09;;;;;;;11.77;2.17;;;;;;;;;;5070787;28;20433;-75
2022/04/07 05:52:35;;;;;;;9.13;2.08;;;;;;;;;;5073376;28;20427;-81
2022/04/07 05:55:01;;;;;;;9.70;2.10;;;;;;;;;;5076751;28;20465;-78
2022/04/07 05:57:30;;;;;;;13.88;2.42;;;;;;;;;;5071339;28;20431;-78
2022/04/07 06:00:01;;;;;;;9.45;2.10;;;;;;;;;;5102480;27;20430;-91
2022/04/07 06:02:27;;;;;;;11.93;2.08;;;;;;;;;;5075520;28;20451;-79
2022/04/07 06:04:53;;;;;;;11.20;2.20;;;;;;;;;;5072005;28;20422;-79
2022/04/07 06:07:19;;;;;;;14.38;2.70;;;;;;;;;;5071310;28;20421;-79
2022/04/07 06:09:45;;;;;;;14.88;2.50;;;;;;;;;;5074218;28;20786;-76
2022/04/07 06:12:11;;;;;;;12.77;2.00;;;;;;;;;;5071642;28;21242;-75
2022/04/07 06:14:37;;;;;;;9.80;1.83;;;;;;;;;;5076872;28;20429;-76
2022/04/07 06:17:03;;;;;;;11.00;2.05;;;;;;;;;;5090064;28;20443;-75
2022/04/07 06:19:29;;;;;;;9.93;2.00;;;;;;;;;;5075723;28;20436;-76
2022/04/07 06:21:55;;;;;;;7.83;1.70;;;;;;;;;;5072856;28;20857;-77
2022/04/07 06:24:22;;;;;;;8.13;1.60;;;;;;;;;;5080795;28;20432;-75
2022/04/07 06:26:49;;;;;;;6.80;1.23;;;;;;;;;;5073863;28;20915;-80
2022/04/07 06:29:15;;;;;;;8.80;1.60;;;;;;;;;;5075315;28;20868;-81
2022/04/07 06:31:41;;;;;;;6.03;1.17;;;;;;;;;;5091834;27;20428;-81
2022/04/07 06:34:08;;;;;;;5.63;1.00;;;;;;;;;;5088869;28;20824;-75
2022/04/07 06:36:34;;;;;;;6.15;1.40;;;;;;;;;;5070490;28;20427;-76
2022/04/07 06:39:00;;;;;;;7.47;1.75;;;;;;;;;;5062492;28;20410;-77
2022/04/07 06:41:26;;;;;;;6.35;1.40;;;;;;;;;;5074747;28;20464;-79
2022/04/07 06:43:52;;;;;;;7.18;1.40;;;;;;;;;;5075397;28;20419;-76
2022/04/07 06:46:18;;;;;;;5.82;1.30;;;;;;;;;;5074500;28;20750;-78
2022/04/07 06:48:44;;;;;;;7.68;1.60;;;;;;;;;;5073463;28;20436;-75
2022/04/07 06:51:10;;;;;;;6.35;1.30;;;;;;;;;;5074732;28;20416;-76
2022/04/07 06:53:36;;;;;;;7.18;1.45;;;;;;;;;;5080847;28;20486;-76
2022/04/07 06:56:03;;;;;;;6.70;1.30;;;;;;;;;;5107155;27;21052;-76
2022/04/07 06:58:29;;;;;;;7.28;1.40;;;;;;;;;;5074635;28;20417;-76
2022/04/07 07:00:55;;;;;;;7.63;1.42;;;;;;;;;;5071650;28;20433;-78
2022/04/07 07:03:22;;;;;;;6.88;2.00;;;;;;;;;;5107017;27;20430;-78
2022/04/07 07:05:48;;;;;;;11.13;2.10;;;;;;;;;;5076193;28;20978;-74
2022/04/07 07:08:19;;;;;;;6.18;1.65;;;;;;;;;;5085009;28;20524;-75
2022/04/07 07:10:46;;;;;;;6.82;1.50;;;;;;;;;;5080909;28;20418;-74
2022/04/07 07:13:13;;;;;;;6.88;1.42;;;;;;;;;;5088031;28;20473;-75
2022/04/07 07:15:39;;;;;;;5.30;1.60;;;;;;;;;;5074127;28;20430;-79
2022/04/07 07:18:05;;;;;;;8.98;1.13;;;;;;;;;;5088771;28;20449;-76
2022/04/07 07:20:31;;;;;;;4.97;1.10;;;;;;;;;;5098046;27;20454;-75
2022/04/07 07:22:58;;;;;;;6.78;1.23;;;;;;;;;;5119957;27;20414;-75
2022/04/07 07:25:24;;;;;;;9.50;1.20;;;;;;;;;;5076443;28;20783;-74
2022/04/07 07:27:50;;;;;;;7.03;1.20;;;;;;;;;;5088079;28;20422;-75
2022/04/07 07:30:17;;;;;;;5.50;1.30;;;;;;;;;;5071041;28;21028;-75
2022/04/07 07:32:44;;;;;;;4.97;1.30;;;;;;;;;;5077508;28;20424;-75
2022/04/07 07:35:11;;;;;;;5.88;1.48;;;;;;;;;;5072435;28;20434;-75
2022/04/07 07:37:38;;;;;;;9.02;1.40;;;;;;;;;;5085803;28;20424;-75
2022/04/07 07:40:07;;;;;;;6.32;1.50;;;;;;;;;;5119862;27;20920;-75
2022/04/07 07:42:36;;;;;;;5.35;1.30;;;;;;;;;;5118071;27;20424;-75
2022/04/07 07:45:02;;;;;;;6.20;1.33;;;;;;;;;;5088548;28;20429;-76
2022/04/07 07:47:28;;;;;;;8.75;1.90;;;;;;;;;;5086537;28;20441;-78
2022/04/07 07:49:54;;;;;;;6.85;1.40;;;;;;;;;;5114790;27;20423;-74
2022/04/07 07:52:20;;;;;;;7.80;1.60;;;;;;;;;;5096047;28;20509;-75
2022/04/07 07:54:46;;;;;;;7.65;1.35;;;;;;;;;;5098297;28;20428;-75
2022/04/07 07:57:12;;;;;;;7.35;1.40;;;;;;;;;;5115095;27;20922;-75
2022/04/07 07:59:38;;;;;;;8.00;1.88;;;;;;;;;;5089942;28;20410;-80
2022/04/07 08:02:05;;;;;;;6.88;1.63;;;;;;;;;;5080450;28;20427;-75
2022/04/07 08:04:31;;;;;;;5.65;1.33;;;;;;;;;;5116437;27;20437;-76
2022/04/07 08:06:58;;;;;;;5.93;1.50;;;;;;;;;;5093510;28;20425;-77
2022/04/07 08:09:24;;;;;;;6.13;1.40;;;;;;;;;;5082787;28;20513;-77
2022/04/07 08:11:50;;;;;;;6.88;1.50;;;;;;;;;;5084136;28;20434;-79
2022/04/07 08:14:16;;;;;;;7.15;1.88;;;;;;;;;;5086966;28;20454;-79
2022/04/07 08:16:42;;;;;;;6.57;1.48;;;;;;;;;;5082019;28;20435;-77
2022/04/07 08:19:09;;;;;;;5.30;1.40;;;;;;;;;;5092503;28;20485;-88
2022/04/07 08:21:36;;;;;;;5.25;1.40;;;;;;;;;;5112680;27;20908;-78
2022/04/07 08:24:03;;;;;;;7.40;1.57;;;;;;;;;;5066553;28;20857;-77
2022/04/07 08:26:29;;;;;;;6.47;1.30;;;;;;;;;;5092422;28;20524;-77
2022/04/07 08:28:55;;;;;;;8.13;1.63;;;;;;;;;;5071927;28;20430;-78
2022/04/07 08:31:21;;;;;;;7.95;1.77;;;;;;;;;;5073007;28;20419;-77
2022/04/07 08:33:47;;;;;;;7.00;1.40;;;;;;;;;;5106336;27;20927;-78
2022/04/07 08:36:13;;;;;;;4.93;1.52;;;;;;;;;;5088300;28;20428;-77
2022/04/07 08:38:39;;;;;;;6.80;1.35;;;;;;;;;;5087708;28;20545;-76
2022/04/07 08:41:09;;;;;;;6.03;1.40;;;;;;;;;;5087401;28;20779;-77
2022/04/07 08:43:38;;;;;;;6.78;1.77;;;;;;;;;;5088098;28;20505;-74
2022/04/07 08:46:08;;;;;;;7.68;1.73;;;;;;;;;;5078461;28;20428;-74
2022/04/07 08:48:38;;;;;;;7.50;1.50;;;;;;;;;;5081986;28;20419;-76
2022/04/07 08:51:06;;;;;;;8.07;1.20;;;;;;;;;;5087185;28;20889;-75
2022/04/07 08:53:33;;;;;;;8.73;1.60;;;;;;;;;;5074785;28;20464;-74
2022/04/07 08:56:00;;;;;;;7.97;2.08;;;;;;;;;;5085401;28;20436;-75
2022/04/07 08:58:27;;;;;;;6.82;1.70;;;;;;;;;;5081739;28;20479;-76
2022/04/07 09:00:53;;;;;;;7.50;1.77;;;;;;;;;;5087614;28;20904;-76
2022/04/07 09:03:19;;;;;;;9.52;1.65;;;;;;;;;;5097269;28;20574;-74
2022/04/07 09:05:55;;;;;;;10.82;2.05;;;;;;;;;;5086859;28;20536;-74
2022/04/07 09:08:21;;;;;;;11.90;2.10;;;;;;;;;;5074344;28;20430;-75
2022/04/07 09:10:54;;;;;;;6.78;1.92;;;;;;;;;;5092695;28;20040;-74
2022/04/07 09:13:20;;;;;;;7.93;1.38;;;;;;;;;;5080139;28;20531;-75
2022/04/07 09:15:47;;;;;;;12.45;2.30;;;;;;;;;;5092883;28;20055;-74
2022/04/07 09:18:13;;;;;;;11.70;2.00;;;;;;;;;;5072484;28;20047;-74
2022/04/07 09:20:45;;;;;;;8.77;1.40;;;;;;;;;;5088224;28;20082;-74
2022/04/07 09:23:12;;;;;;;10.23;1.75;;;;;;;;;;5094604;28;20059;-74
2022/04/07 09:25:44;;;;;;;10.43;1.48;;;;;;;;;;5088126;28;20047;-75
2022/04/07 09:28:11;;;;;;;12.93;2.55;;;;;;;;;;5086474;28;20094;-74
2022/04/07 09:30:38;;;;;;;7.35;1.70;;;;;;;;;;5090944;28;20052;-79
2022/04/07 09:33:04;;;;;;;8.85;1.95;;;;;;;;;;5089306;28;20118;-74
2022/04/07 09:35:30;;;;;;;13.75;2.35;;;;;;;;;;5094276;28;20043;-77
2022/04/07 09:38:01;;;;;;;10.30;1.52;;;;;;;;;;5088896;28;20036;-76
2022/04/07 09:40:28;;;;;;;13.77;1.88;;;;;;;;;;5090626;28;20094;-76
2022/04/07 09:42:58;;;;;;;14.07;1.95;;;;;;;;;;5099951;28;20036;-76
2022/04/07 09:45:24;;;;;;;9.77;1.70;;;;;;;;;;5097100;28;20040;-76
2022/04/07 09:47:50;;;;;;;14.93;2.72;;;;;;;;;;5074856;28;20418;-76
2022/04/07 09:50:24;;;;;;;16.65;2.42;;;;;;;;;;5088252;28;20119;-75
2022/04/07 09:53:03;;;;;;;8.77;1.85;;;;;;;;;;5092027;28;20032;-75
2022/04/07 09:55:35;;;;;;;10.90;1.90;;;;;;;;;;5084076;28;20479;-76
2022/04/07 09:58:02;;;;;;;11.88;2.60;;;;;;;;;;5075129;28;20043;-77
2022/04/07 10:00:29;;;;;;;11.77;2.38;;;;;;;;;;5090143;28;20139;-76
2022/04/07 10:02:56;;;;;;;10.38;2.45;;;;;;;;;;5089144;28;20040;-80
2022/04/07 10:05:23;;;;;;;17.85;3.08;;;;;;;;;;5084484;28;20479;-74
2022/04/07 10:07:49;;;;;;;7.00;1.73;;;;;;;;;;5087555;28;20046;-76
2022/04/07 10:10:18;;;;;;;14.43;2.28;;;;;;;;;;5086634;28;20505;-77
2022/04/07 10:12:45;;;;;;;9.40;2.38;;;;;;;;;;5099246;27;20035;-75
2022/04/07 10:15:11;;;;;;;12.05;1.90;;;;;;;;;;5088730;28;20395;-78
2022/04/07 10:17:38;;;;;;;7.18;1.50;;;;;;;;;;5090407;28;20459;-78
2022/04/07 10:20:09;;;;;;;7.57;1.60;;;;;;;;;;5089419;28;20043;-76
2022/04/07 10:22:55;;;;;;;7.13;1.25;;;;;;;;;;5091573;28;20059;-79
2022/04/07 10:25:22;;;;;;;8.65;1.35;;;;;;;;;;5089578;28;20043;-75
2022/04/07 10:27:57;;;;;;;10.65;1.92;;;;;;;;;;5089899;28;20044;-75
2022/04/07 10:30:23;;;;;;;11.25;1.90;;;;;;;;;;5094750;28;20040;-75
2022/04/07 10:32:52;;;;;;;16.40;3.80;;;;;;;;;;5093727;28;20440;-75
2022/04/07 10:35:31;;;;;;;16.02;3.25;;;;;;;;;;5090515;28;20040;-75
2022/04/07 10:37:58;;;;;;;15.48;2.95;;;;;;;;;;5092827;28;20079;-75
2022/04/07 10:40:34;;;;;;;17.98;2.90;;;;;;;;;;5084064;28;20040;-76
2022/04/07 10:43:17;;;;;;;10.43;2.20;;;;;;;;;;5093210;28;20033;-75
2022/04/07 10:45:44;;;;;;;7.18;1.88;;;;;;;;;;5070079;28;20390;-74
2022/04/07 10:48:21;;;;;;;9.27;1.90;;;;;;;;;;5085895;28;20474;-74
2022/04/07 10:50:57;;;;;;;13.00;1.90;;;;;;;;;;5077264;28;20044;-74
2022/04/07 10:53:25;;;;;;;11.40;2.53;;;;;;;;;;5074512;28;20093;-74
2022/04/07 10:55:54;;;;;;;16.88;2.33;;;;;;;;;;5089622;28;20371;-73
2022/04/07 10:58:21;;;;;;;10.68;2.42;;;;;;;;;;5072512;28;20051;-75
2022/04/07 11:00:48;;;;;;;15.48;2.80;;;;;;;;;;5084835;28;20055;-75
2022/04/07 11:03:18;;;;;;;9.35;2.53;;;;;;;;;;5087437;28;20040;-89
2022/04/07 11:06:13;;;;;;;15.25;2.88;;;;;;;;;;5107937;27;20048;-74
2022/04/07 11:08:39;;;;;;;13.30;1.98;;;;;;;;;;5105967;27;20067;-74
2022/04/07 11:11:06;;;;;;;16.73;3.08;;;;;;;;;;5089847;28;20502;-74
2022/04/07 11:13:50;;;;;;;16.30;2.78;;;;;;;;;;5087406;28;20085;-73
2022/04/07 11:16:30;;;;;;;18.42;3.33;;;;;;;;;;5091129;28;20131;-77
2022/04/07 11:19:00;;;;;;;15.98;3.35;;;;;;;;;;5089878;28;20494;-78
2022/04/07 11:21:26;;;;;;;17.73;2.88;;;;;;;;;;5090640;28;20063;-83
2022/04/07 11:23:53;;;;;;;18.52;2.80;;;;;;;;;;5089008;28;20086;-74
2022/04/07 11:26:25;;;;;;;14.05;2.97;;;;;;;;;;5096464;28;20052;-75
2022/04/07 11:28:59;;;;;;;22.20;3.65;;;;;;;;;;5073171;28;20132;-73
2022/04/07 11:31:25;;;;;;;;;;;;;;;;;;5088432;28;20069;-74
2022/04/07 11:33:51;;;;;;;13.80;2.95;;;;;;;;;;5079451;28;19916;-73
2022/04/07 11:36:33;;;;;;;13.50;2.95;;;;;;;;;;5088209;28;20039;-80
2022/04/07 11:39:00;;;;;;;18.10;3.25;;;;;;;;;;5083518;28;20041;-76
2022/04/07 11:41:32;;;;;;;15.65;3.65;;;;;;;;;;5093053;28;20277;-74
2022/04/07 11:43:58;;;;;;;14.05;3.15;;;;;;;;;;5087377;28;20072;-76
2022/04/07 11:46:33;;;;;;;16.67;3.13;;;;;;;;;;5084663;28;20046;-77
2022/04/07 11:49:00;;;;;;;13.75;2.20;;;;;;;;;;5091845;28;20040;-79
2022/04/07 11:51:26;;;;;;;15.90;2.90;;;;;;;;;;5069118;28;20442;-76
2022/04/07 11:53:53;;;;;;;14.38;2.38;;;;;;;;;;5087164;28;20043;-76
2022/04/07 11:56:21;;;;;;;14.52;2.78;;;;;;;;;;5090659;28;20072;-75
2022/04/07 11:59:06;;;;;;;13.88;2.83;;;;;;;;;;5082553;28;20375;-75
2022/04/07 12:01:33;;;;;;;13.32;3.05;;;;;;;;;;5084069;28;20084;-76
2022/04/07 12:04:00;;;;;;;13.93;2.65;;;;;;;;;;5084808;28;20070;-78
2022/04/07 12:06:30;;;;;;;17.35;2.60;;;;;;;;;;5083509;28;20403;-80
2022/04/07 12:08:57;;;;;;;12.82;3.03;;;;;;;;;;5081728;28;20044;-78
2022/04/07 12:11:24;;;;;;;12.20;2.60;;;;;;;;;;5110865;27;20123;-79
2022/04/07 12:13:51;;;;;;;13.60;2.00;;;;;;;;;;5084323;28;20039;-78
2022/04/07 12:16:18;;;;;;;14.95;3.17;;;;;;;;;;5081902;28;20032;-83
2022/04/07 12:18:55;;;;;;;14.40;2.55;;;;;;;;;;5079987;28;20127;-76
2022/04/07 12:21:23;;;;;;;13.50;2.50;;;;;;;;;;5083422;28;20068;-88
2022/04/07 12:23:49;;;;;;;12.57;2.35;;;;;;;;;;5082703;28;20110;-76
2022/04/07 12:26:15;;;;;;;13.60;2.95;;;;;;;;;;5082245;28;20055;-77
2022/04/07 12:28:41;;;;;;;8.52;1.55;;;;;;;;;;5083925;28;20192;-77
2022/04/07 12:31:11;;;;;;;6.57;1.10;;;;;;;;;;5063768;28;20036;-78
2022/04/07 12:33:38;;;;;;;5.43;1.20;;;;;;;;;;5077860;28;20098;-75
2022/04/07 12:36:15;;;;;;;5.80;1.38;;;;;;;;;;5086730;28;20047;-72
2022/04/07 12:38:42;;;;;;;10.65;1.90;;;;;;;;;;5087288;28;20100;-73
2022/04/07 12:41:09;;;;;;;12.35;1.88;;;;;;;;;;5065915;28;20051;-75
2022/04/07 12:43:51;;;;;;;14.02;2.03;;;;;;;;;;5084389;28;20409;-76
2022/04/07 12:46:21;;;;;;;15.52;2.33;;;;;;;;;;5076712;28;20040;-75
2022/04/07 12:49:04;;;;;;;13.38;2.60;;;;;;;;;;5085653;28;20056;-79
2022/04/07 12:51:31;;;;;;;12.82;2.53;;;;;;;;;;5091268;28;20435;-78
2022/04/07 12:54:06;;;;;;;9.05;2.10;;;;;;;;;;5084695;28;20047;-82
2022/04/07 12:56:32;;;;;;;10.70;2.10;;;;;;;;;;5082769;28;20056;-77
2022/04/07 12:59:25;;;;;;;8.75;1.70;;;;;;;;;;5066467;28;20044;-75
2022/04/07 13:01:54;;;;;;;9.90;2.08;;;;;;;;;;5072071;28;20398;-74
2022/04/07 13:04:20;;;;;;;13.65;2.38;;;;;;;;;;5084253;28;20036;-77
2022/04/07 13:06:47;;;;;;;12.75;2.20;;;;;;;;;;5069180;28;20490;-74
2022/04/07 13:09:16;;;;;;;11.73;2.20;;;;;;;;;;5107525;28;20110;-78
2022/04/07 13:11:42;;;;;;;11.80;2.00;;;;;;;;;;5079702;28;20056;-74
2022/04/07 13:14:11;;;;;;;14.80;2.45;;;;;;;;;;5084318;28;20450;-75
2022/04/07 13:16:38;;;;;;;12.75;2.80;;;;;;;;;;5082511;28;20089;-77
2022/04/07 13:19:04;;;;;;;9.35;2.22;;;;;;;;;;5120389;28;20101;-76
2022/04/07 13:21:33;;;;;;;11.95;2.00;;;;;;;;;;5079036;28;20048;-76
2022/04/07 13:23:59;;;;;;;10.95;1.98;;;;;;;;;;5084461;28;20051;-73
2022/04/07 13:26:26;;;;;;;4.90;1.48;;;;;;;;;;5088222;28;20043;-76
2022/04/07 13:28:53;;;;;;;9.75;2.00;;;;;;;;;;5090137;28;20047;-75
2022/04/07 13:31:19;;;;;;;9.10;1.83;;;;;;;;;;5097664;28;20369;-76
2022/04/07 13:33:46;;;;;;;9.75;1.92;;;;;;;;;;5079207;28;20106;-75
2022/04/07 13:36:12;;;;;;;11.77;2.30;;;;;;;;;;5085777;28;20048;-85
2022/04/07 13:38:39;;;;;;;7.50;1.75;;;;;;;;;;5088104;28;20120;-75
2022/04/07 13:41:05;;;;;;;6.53;1.10;;;;;;;;;;5084310;28;20540;-75
2022/04/07 13:43:31;;;;;;;2.95;1.00;;;;;;;;;;5084658;28;20474;-75
2022/04/07 13:45:58;;;;;;;4.53;1.15;;;;;;;;;;5079484;28;20050;-76
2022/04/07 13:48:25;;;;;;;6.40;1.10;;;;;;;;;;5087031;28;20032;-75
2022/04/07 13:50:51;;;;;;;5.78;1.40;;;;;;;;;;5086289;28;20032;-75
2022/04/07 13:53:18;;;;;;;9.23;1.27;;;;;;;;;;5098862;28;20043;-75
2022/04/07 13:55:45;;;;;;;7.45;1.38;;;;;;;;;;5098082;28;20051;-81
2022/04/07 13:58:11;;;;;;;5.43;0.95;;;;;;;;;;5068675;28;20048;-75
2022/04/07 14:00:41;;;;;;;3.78;0.90;;;;;;;;;;5090192;27;20096;-75
2022/04/07 14:03:07;;;;;;;3.60;0.82;;;;;;;;;;5062228;28;20044;-80
2022/04/07 14:05:33;;;;;;;2.47;1.13;;;;;;;;;;5087505;28;20474;-75
2022/04/07 14:08:00;;;;;;;3.13;0.90;;;;;;;;;;5081660;28;20383;-76
2022/04/07 14:10:26;;;;;;;3.08;1.00;;;;;;;;;;5093957;28;20027;-75
2022/04/07 14:12:52;;;;;;;4.10;0.98;;;;;;;;;;5092976;28;20044;-75
2022/04/07 14:15:18;;;;;;;4.60;1.25;;;;;;;;;;5086225;28;20036;-76
2022/04/07 14:17:45;;;;;;;5.32;1.55;;;;;;;;;;5103022;28;20524;-77
2022/04/07 14:20:14;;;;;;;10.77;2.05;;;;;;;;;;5106228;28;20094;-76
2022/04/07 14:22:41;;;;;;;11.00;2.08;;;;;;;;;;5073860;28;20391;-78
2022/04/07 14:25:07;;;;;;;10.10;1.52;;;;;;;;;;5090679;28;20179;-76
2022/04/07 14:27:33;;;;;;;21.38;2.47;;;;;;;;;;5045521;28;20055;-78
2022/04/07 14:30:00;;;;;;;12.13;2.20;;;;;;;;;;5121459;27;20070;-76
2022/04/07 14:32:26;;;;;;;9.88;1.90;;;;;;;;;;5091989;28;20047;-77
2022/04/07 14:34:52;;;;;;;14.75;2.40;;;;;;;;;;5086519;28;20628;-78